createdAt,value
2023-03-05T00:00:15.343Z,85.94
2023-03-05T00:02:17.310Z,85.87
2023-03-05T00:04:18.604Z,85.85
2023-03-05T00:06:20.276Z,85.79
2023-03-05T00:08:21.584Z,85.77
2023-03-05T00:10:23.462Z,85.91
2023-03-05T00:12:25.387Z,85.64
2023-03-05T00:14:26.520Z,85.58
2023-03-05T00:18:29.766Z,85.73
2023-03-05T00:20:31.547Z,85.73
2023-03-05T00:22:33.094Z,85.77
2023-03-05T00:24:34.307Z,85.91
2023-03-05T00:26:35.431Z,85.98
2023-03-05T00:28:37.230Z,86
2023-03-05T00:30:38.713Z,86.01
2023-03-05T00:32:40.687Z,86.13
2023-03-05T00:34:42.270Z,86.3
2023-03-05T00:36:43.699Z,86.32
2023-03-05T00:38:45.155Z,86.38
2023-03-05T00:40:47.098Z,86.36
2023-03-05T00:42:48.140Z,86.5
2023-03-05T00:44:49.740Z,86.55
2023-03-05T00:46:51.358Z,86.61
2023-03-05T00:50:54.394Z,86.7
2023-03-05T00:52:55.592Z,86.72
2023-03-05T00:54:57.513Z,86.86
2023-03-05T00:56:59.402Z,86.85
2023-03-05T01:01:02.436Z,86.7
2023-03-05T01:03:04.178Z,86.91
2023-03-05T01:05:05.320Z,86.87
2023-03-05T01:07:07.123Z,86.9
2023-03-05T01:09:09.500Z,86.81
2023-03-05T01:11:09.940Z,86.59
2023-03-05T01:13:11.388Z,86.39
2023-03-05T01:15:13.372Z,86.33
2023-03-05T01:17:14.479Z,86.37
2023-03-05T01:19:15.845Z,86.36
2023-03-05T01:21:17.059Z,86.31
2023-03-05T01:23:18.926Z,86.27
2023-03-05T01:25:19.983Z,86.27
2023-03-05T01:27:21.398Z,86.31
2023-03-05T01:29:23.350Z,86.34
2023-03-05T01:31:24.524Z,86.46
2023-03-05T01:33:26.107Z,86.54
2023-03-05T01:35:28.101Z,86.61
2023-03-05T01:37:29.226Z,86.46
2023-03-05T01:39:30.243Z,86.39
2023-03-05T01:43:33.980Z,86.52
2023-03-05T01:45:35.946Z,86.5
2023-03-05T01:47:36.998Z,86.61
2023-03-05T01:49:38.303Z,86.77
2023-03-05T01:51:40.097Z,86.8
2023-03-05T01:53:41.681Z,86.83
2023-03-05T01:55:43.242Z,86.83
2023-03-05T01:57:45.053Z,86.72
2023-03-05T01:59:46.303Z,86.74
2023-03-05T02:01:48.209Z,86.68
2023-03-05T02:03:50.170Z,86.76
2023-03-05T02:05:51.437Z,86.82
2023-03-05T02:07:52.539Z,86.77
2023-03-05T02:09:54.296Z,86.84
2023-03-05T02:11:55.328Z,86.81
2023-03-05T02:13:57.011Z,86.82
2023-03-05T02:16:07.125Z,86.81
2023-03-05T02:17:59.698Z,86.79
2023-03-05T02:20:01.533Z,86.74
2023-03-05T02:22:03.457Z,86.79
2023-03-05T02:24:04.716Z,86.75
2023-03-05T02:26:06.034Z,86.75
2023-03-05T02:28:07.709Z,86.88
2023-03-05T02:32:10.323Z,86.66
2023-03-05T02:34:11.354Z,86.73
2023-03-05T02:36:12.988Z,86.81
2023-03-05T02:38:14.586Z,86.87
2023-03-05T02:42:16.715Z,87.02
2023-03-05T02:44:17.809Z,87.16
2023-03-05T02:46:19.444Z,87.24
2023-03-05T02:48:20.421Z,87.32
2023-03-05T02:50:21.577Z,87.2
2023-03-05T02:52:22.699Z,87.19
2023-03-05T02:54:24.082Z,87.18
2023-03-05T02:56:25.995Z,87.25
2023-03-05T02:58:27.281Z,87.33
2023-03-05T03:00:28.666Z,87.48
2023-03-05T03:02:29.809Z,87.3
2023-03-05T03:04:31.031Z,87.12
2023-03-05T03:06:32.634Z,87.01
2023-03-05T03:08:34.056Z,87.09
2023-03-05T03:10:35.222Z,87.16
2023-03-05T03:12:36.174Z,87.22
2023-03-05T03:14:38.172Z,87.26
2023-03-05T03:16:39.917Z,87.29
2023-03-05T03:18:41.525Z,87.42
2023-03-05T03:20:43.418Z,87.49
2023-03-05T03:24:45.695Z,87.47
2023-03-05T03:26:46.885Z,87.43
2023-03-05T03:28:48.058Z,87.42
2023-03-05T03:30:49.120Z,87.5
2023-03-05T03:32:50.804Z,87.57
2023-03-05T03:34:52.319Z,87.58
2023-03-05T03:36:53.728Z,87.49
2023-03-05T03:38:55.250Z,87.47
2023-03-05T03:40:56.769Z,87.34
2023-03-05T03:42:58.115Z,87.41
2023-03-05T03:44:59.890Z,87.45
2023-03-05T03:47:01.614Z,87.54
2023-03-05T03:49:02.692Z,87.57
2023-03-05T03:51:04.016Z,87.62
2023-03-05T03:53:05.270Z,87.68
2023-03-05T03:57:08.161Z,87.68
2023-03-05T03:59:10.045Z,87.59
2023-03-05T04:01:11.292Z,87.57
2023-03-05T04:03:12.857Z,87.59
2023-03-05T04:07:15.862Z,87.8
2023-03-05T04:09:17.423Z,87.86
2023-03-05T04:11:18.854Z,87.91
2023-03-05T04:13:20.823Z,87.96
2023-03-05T04:15:22.676Z,87.98
2023-03-05T04:17:24.262Z,88.1
2023-03-05T04:19:26.113Z,88.26
2023-03-05T04:21:27.786Z,88.33
2023-03-05T04:23:29.500Z,88.32
2023-03-05T04:25:30.731Z,88.27
2023-03-05T04:27:32.678Z,88.33
2023-03-05T04:29:34.411Z,88.41
2023-03-05T04:31:35.986Z,88.56
2023-03-05T04:33:37.760Z,88.7
2023-03-05T04:35:39.360Z,88.72
2023-03-05T04:39:42.981Z,88.78
2023-03-05T04:41:44.042Z,88.81
2023-03-05T04:43:45.204Z,88.74
2023-03-05T04:45:46.416Z,88.69
2023-03-05T04:49:49.731Z,88.78
2023-03-05T04:51:50.791Z,88.88
2023-03-05T04:53:52.729Z,89.01
2023-03-05T04:55:54.276Z,89.01
2023-03-05T04:57:55.343Z,89.14
2023-03-05T04:59:56.866Z,89.15
2023-03-05T05:01:58.205Z,89.17
2023-03-05T05:03:59.510Z,89.34
2023-03-05T05:06:01.364Z,89.54
2023-03-05T05:08:03.121Z,89.57
2023-03-05T05:12:05.953Z,89.73
2023-03-05T05:14:07.351Z,89.72
2023-03-05T05:16:09.291Z,89.62
2023-03-05T05:18:10.755Z,89.66
2023-03-05T05:22:13.623Z,89.86
2023-03-05T05:24:14.692Z,89.91
2023-03-05T05:26:16.028Z,89.85
2023-03-05T05:28:17.506Z,89.8
2023-03-05T05:29:01.429Z,89.75
2023-03-05T05:31:03.406Z,89.69
2023-03-05T05:33:04.719Z,89.91
2023-03-05T05:35:06.282Z,89.87
2023-03-05T05:37:08.169Z,89.69
2023-03-05T05:39:09.677Z,89.64
2023-03-05T05:41:11.628Z,89.59
2023-03-05T05:43:13.595Z,89.74
2023-03-05T05:45:15.522Z,89.73
2023-03-05T05:49:18.568Z,89.91
2023-03-05T05:51:20.177Z,89.89
2023-03-05T05:53:21.627Z,89.97
2023-03-05T05:55:23.405Z,90.04
2023-03-05T05:59:26.933Z,90.26
2023-03-05T06:01:28.433Z,90.1
2023-03-05T06:03:29.763Z,90.18
2023-03-05T06:05:31.395Z,90.19
2023-03-05T06:07:32.801Z,90.24
2023-03-05T06:09:33.952Z,90.25
2023-03-05T06:11:35.597Z,90.27
2023-03-05T06:13:37.383Z,90.22
2023-03-05T06:15:39.305Z,90.24
2023-03-05T06:17:41.476Z,90.28
2023-03-05T06:19:43.179Z,90.46
2023-03-05T06:21:44.688Z,90.62
2023-03-05T06:23:45.974Z,90.43
2023-03-05T06:25:47.392Z,90.4
2023-03-05T06:27:49.003Z,90.34
2023-03-05T06:31:52.441Z,90.34
2023-03-05T06:34:02.458Z,90.35
2023-03-05T06:35:55.107Z,90.34
2023-03-05T06:37:56.710Z,90.33
2023-03-05T06:41:59.326Z,90.19
2023-03-05T06:44:00.392Z,90.17
2023-03-05T06:46:02.247Z,90.05
2023-03-05T06:48:03.401Z,89.94
2023-03-05T06:50:04.904Z,89.94
2023-03-05T06:52:06.796Z,90.02
2023-03-05T06:54:08.061Z,90.16
2023-03-05T06:56:09.876Z,90.13
2023-03-05T06:58:11.862Z,90.09
2023-03-05T07:00:13.123Z,90.05
2023-03-05T07:02:14.682Z,90.08
2023-03-05T07:04:15.910Z,89.98
2023-03-05T07:06:17.420Z,89.98
2023-03-05T07:08:18.792Z,89.88
2023-03-05T07:10:20.650Z,89.81
2023-03-05T07:12:22.122Z,89.79
2023-03-05T07:14:23.658Z,89.69
2023-03-05T07:16:24.752Z,89.62
2023-03-05T07:18:26.235Z,89.56
2023-03-05T07:20:27.676Z,89.61
2023-03-05T07:22:28.896Z,89.47
2023-03-05T07:24:30.584Z,89.44
2023-03-05T07:26:32.598Z,89.38
2023-03-05T07:30:36.206Z,89.06
2023-03-05T07:32:37.351Z,89
2023-03-05T07:34:38.425Z,88.9
2023-03-05T07:36:40.127Z,88.62
2023-03-05T07:40:43.925Z,88.59
2023-03-05T07:42:45.022Z,88.38
2023-03-05T07:44:46.656Z,88.4
2023-03-05T07:46:48.196Z,88.43
2023-03-05T07:48:50.068Z,88.34
2023-03-05T07:50:51.214Z,88.29
2023-03-05T07:52:53.141Z,88.07
2023-03-05T07:54:54.636Z,88.23
2023-03-05T07:56:56.552Z,88.14
2023-03-05T07:58:58.560Z,88.01
2023-03-05T08:00:59.656Z,88.14
2023-03-05T08:03:01.177Z,88.26
2023-03-05T08:05:02.943Z,88.22
2023-03-05T08:07:04.093Z,88.1
2023-03-05T08:09:05.666Z,88.14
2023-03-05T08:11:07.639Z,88.2
2023-03-05T08:13:09.339Z,88.13
2023-03-05T08:15:10.988Z,88.17
2023-03-05T08:17:12.998Z,88.16
2023-03-05T08:19:14.464Z,88
2023-03-05T08:23:17.964Z,87.77
2023-03-05T08:25:19.504Z,87.24
2023-03-05T08:27:20.985Z,86.83
2023-03-05T08:29:22.362Z,86.66
2023-03-05T08:31:23.431Z,86.44
2023-03-05T08:33:24.689Z,86.05
2023-03-05T08:35:25.905Z,85.96
2023-03-05T08:37:27.772Z,85.7
2023-03-05T08:39:29.102Z,86.01
2023-03-05T08:41:30.179Z,85.24
2023-03-05T08:43:32.195Z,84.86
2023-03-05T08:45:33.324Z,84.34
2023-03-05T08:47:34.921Z,84.52
2023-03-05T08:49:36.672Z,84.33
2023-03-05T08:51:37.662Z,83.81
2023-03-05T08:53:39.455Z,83.57
2023-03-05T08:55:41.392Z,83.25
2023-03-05T08:57:41.828Z,83.21
2023-03-05T08:59:42.917Z,82.83
2023-03-05T09:01:44.038Z,82.99
2023-03-05T09:05:46.702Z,82.88
2023-03-05T09:07:48.065Z,82.32
2023-03-05T09:09:49.195Z,82.68
2023-03-05T09:11:50.498Z,82.07
2023-03-05T09:13:51.997Z,82.02
2023-03-05T09:15:53.798Z,81.93
2023-03-05T09:17:54.780Z,82.45
2023-03-05T09:19:56.260Z,81.49
2023-03-05T09:21:57.994Z,81.58
2023-03-05T09:23:59.084Z,81.88
2023-03-05T09:26:00.613Z,80.99
2023-03-05T09:28:01.950Z,80.19
2023-03-05T09:30:03.022Z,80.63
2023-03-05T09:32:04.602Z,79.24
2023-03-05T09:34:05.628Z,79.26
2023-03-05T09:36:15.285Z,78.63
2023-03-05T09:38:08.965Z,78.05
2023-03-05T09:40:09.958Z,78.12
2023-03-05T09:42:11.008Z,77.53
2023-03-05T09:44:12.172Z,76.88
2023-03-05T09:46:13.535Z,76.66
2023-03-05T09:48:15.050Z,75.75
2023-03-05T09:50:16.668Z,75.78
2023-03-05T09:54:19.424Z,75.46
2023-03-05T09:56:20.727Z,74
2023-03-05T09:58:22.368Z,75.2
2023-03-05T10:00:23.759Z,75.23
2023-03-05T10:04:26.703Z,75.06
2023-03-05T10:06:28.057Z,75.08
2023-03-05T10:08:29.250Z,75.19
2023-03-05T10:10:30.933Z,74.1
2023-03-05T10:12:32.000Z,72.74
2023-03-05T10:14:33.699Z,72.23
2023-03-05T10:16:34.795Z,72.38
2023-03-05T10:18:35.966Z,73.41
2023-03-05T10:20:37.874Z,73.19
2023-03-05T10:22:39.253Z,73.05
2023-03-05T10:24:40.437Z,72.56
2023-03-05T10:26:41.818Z,71.39
2023-03-05T10:28:43.079Z,72.21
2023-03-05T10:30:44.026Z,72.44
2023-03-05T10:32:45.051Z,71.85
2023-03-05T10:34:46.251Z,72.35
2023-03-05T10:36:47.331Z,72.86
2023-03-05T10:38:48.636Z,68.82
2023-03-05T10:40:50.366Z,68.56
2023-03-05T10:42:51.431Z,66.86
2023-03-05T10:46:55.164Z,66.87
2023-03-05T10:48:55.588Z,65.99
2023-03-05T10:50:57.206Z,65.98
2023-03-05T10:52:59.012Z,67.99
2023-03-05T10:55:00.507Z,68.52
2023-03-05T10:57:02.214Z,69.76
2023-03-05T10:59:03.845Z,68.47
2023-03-05T11:01:05.338Z,69.75
2023-03-05T11:03:06.502Z,68.53
2023-03-05T11:05:08.375Z,67.51
2023-03-05T11:07:10.051Z,66.39
2023-03-05T11:09:11.209Z,66.1
2023-03-05T11:11:12.306Z,66.06
2023-03-05T11:13:13.737Z,66.59
2023-03-05T11:15:14.976Z,66.1
2023-03-05T11:19:18.426Z,65.42
2023-03-05T11:21:20.221Z,65.77
2023-03-05T11:23:21.875Z,66.07
2023-03-05T11:25:23.026Z,66.55
2023-03-05T11:29:26.065Z,65.67
2023-03-05T11:31:27.689Z,66.22
2023-03-05T11:33:29.451Z,67.19
2023-03-05T11:35:31.369Z,67.05
2023-03-05T11:37:32.694Z,67.55
2023-03-05T11:39:34.014Z,68.71
2023-03-05T11:41:35.793Z,68.99
2023-03-05T11:43:37.047Z,69.4
2023-03-05T11:45:38.758Z,70.23
2023-03-05T11:47:40.206Z,70
2023-03-05T11:49:41.229Z,70.42
2023-03-05T11:51:42.928Z,70.6
2023-03-05T11:53:44.135Z,70.71
2023-03-05T11:55:45.322Z,70.92
2023-03-05T11:57:46.944Z,71.22
2023-03-05T12:01:49.364Z,71.51
2023-03-05T12:03:51.050Z,71.42
2023-03-05T12:05:52.827Z,71.15
2023-03-05T12:07:54.107Z,70.97
2023-03-05T12:11:57.714Z,70.59
2023-03-05T12:13:59.168Z,70.15
2023-03-05T12:16:45.227Z,70.42
2023-03-05T12:18:46.472Z,70.71
2023-03-05T12:20:47.660Z,71.07
2023-03-05T12:22:49.370Z,70.82
2023-03-05T12:24:51.063Z,70.79
2023-03-05T12:26:52.554Z,71.03
2023-03-05T12:28:54.416Z,71.03
2023-03-05T12:30:55.584Z,71.33
2023-03-05T12:32:57.430Z,71.44
2023-03-05T12:34:58.773Z,71.33
2023-03-05T12:37:00.385Z,71.72
2023-03-05T12:39:01.915Z,71.07
2023-03-05T12:41:03.567Z,70.69
2023-03-05T12:43:04.896Z,70.79
2023-03-05T12:45:06.294Z,70.31
2023-03-05T12:47:07.554Z,70.57
2023-03-05T12:49:08.637Z,70.94
2023-03-05T12:51:10.389Z,70.58
2023-03-05T12:53:11.409Z,70.46
2023-03-05T12:55:12.510Z,70.16
2023-03-05T12:57:13.788Z,70.54
2023-03-05T12:59:15.172Z,70.45
2023-03-05T13:01:16.974Z,70.47
2023-03-05T13:05:21.457Z,70.14
2023-03-05T13:07:22.350Z,70.05
2023-03-05T13:09:24.021Z,70.2
2023-03-05T13:11:25.443Z,70.2
2023-03-05T13:13:26.895Z,70.31
2023-03-05T13:15:28.228Z,70.86
2023-03-05T13:17:29.360Z,71.19
2023-03-05T13:19:30.933Z,71.48
2023-03-05T13:21:32.788Z,70.62
2023-03-05T13:23:33.866Z,70.36
2023-03-05T13:25:34.902Z,70.12
2023-03-05T13:27:36.471Z,70.2
2023-03-05T13:29:38.429Z,70.25
2023-03-05T13:31:39.453Z,70.73
2023-03-05T13:33:41.105Z,69.88
2023-03-05T13:35:42.132Z,69.84
2023-03-05T13:37:43.976Z,69.97
2023-03-05T13:39:45.767Z,70.08
2023-03-05T13:41:46.958Z,70.02
2023-03-05T13:43:48.554Z,69.96
2023-03-05T13:47:51.070Z,69.5
2023-03-05T13:49:52.775Z,69.2
2023-03-05T13:51:53.849Z,68.98
2023-03-05T13:53:55.622Z,69.29
2023-03-05T13:55:56.693Z,69.27
2023-03-05T13:57:58.099Z,68.07
2023-03-05T13:59:59.708Z,68.93
2023-03-05T14:02:01.385Z,68.96
2023-03-05T14:04:02.767Z,68.74
2023-03-05T14:06:04.328Z,69.8
2023-03-05T14:08:05.619Z,69.64
2023-03-05T14:10:06.586Z,69.39
2023-03-05T14:12:08.122Z,69.41
2023-03-05T14:14:09.292Z,69.37
2023-03-05T14:16:10.339Z,69.39
2023-03-05T14:18:11.487Z,69.24
2023-03-05T14:20:12.480Z,69.54
2023-03-05T14:22:13.589Z,68.7
2023-03-05T14:24:15.573Z,69.5
2023-03-05T14:26:17.379Z,68.91
2023-03-05T14:30:20.027Z,69.06
2023-03-05T14:32:21.796Z,69.11
2023-03-05T14:34:23.413Z,69.08
2023-03-05T14:36:24.744Z,68.93
2023-03-05T14:38:26.525Z,69.37
2023-03-05T14:40:27.726Z,70.03
2023-03-05T14:42:29.097Z,69.53
2023-03-05T14:44:30.734Z,69.66
2023-03-05T14:46:32.032Z,69.84
2023-03-05T14:48:33.315Z,69.63
2023-03-05T14:50:34.592Z,69.69
2023-03-05T14:52:36.559Z,70.09
2023-03-05T14:54:37.627Z,69.61
2023-03-05T14:56:39.467Z,70.18
2023-03-05T14:58:40.641Z,69.69
2023-03-05T15:02:43.896Z,70
2023-03-05T15:04:45.856Z,70.19
2023-03-05T15:06:47.740Z,69.38
2023-03-05T15:08:48.744Z,69.31
2023-03-05T15:12:52.099Z,69.54
2023-03-05T15:14:53.983Z,69.48
2023-03-05T15:16:55.430Z,69.54
2023-03-05T15:18:56.735Z,69.99
2023-03-05T15:20:58.215Z,70
2023-03-05T15:23:00.482Z,69.84
2023-03-05T15:25:01.283Z,69.71
2023-03-05T15:27:02.351Z,69.58
2023-03-05T15:29:04.182Z,69.94
2023-03-05T15:31:05.795Z,69.97
2023-03-05T15:33:06.894Z,70.27
2023-03-05T15:35:08.179Z,70.22
2023-03-05T15:37:09.478Z,70.43
2023-03-05T15:39:10.918Z,70.67
2023-03-05T15:41:12.782Z,70.18
2023-03-05T15:43:14.331Z,70.15
2023-03-05T15:45:15.351Z,70.55
2023-03-05T15:47:16.737Z,70.04
2023-03-05T15:49:17.941Z,69
2023-03-05T15:51:19.762Z,69.31
2023-03-05T15:53:21.569Z,69.3
2023-03-05T15:55:23.588Z,68.87
2023-03-05T15:57:24.525Z,69.19
2023-03-05T16:01:27.465Z,68.68
2023-03-05T16:03:28.551Z,68.35
2023-03-05T16:05:29.931Z,67.91
2023-03-05T16:07:32.896Z,67.83
2023-03-05T16:11:34.113Z,68.61
2023-03-05T16:13:35.298Z,68.42
2023-03-05T16:15:37.182Z,68.88
2023-03-05T16:17:38.392Z,68.93
2023-03-05T16:19:40.159Z,69.02
2023-03-05T16:21:41.290Z,69.36
2023-03-05T16:23:42.592Z,69.84
2023-03-05T16:25:43.905Z,70.01
2023-03-05T16:27:45.613Z,70.02
2023-03-05T16:29:46.659Z,70.11
2023-03-05T16:31:48.674Z,70.45
2023-03-05T16:33:50.317Z,70.4
2023-03-05T16:35:51.977Z,70.52
2023-03-05T16:37:53.316Z,70.04
2023-03-05T16:39:54.450Z,70.03
2023-03-05T16:41:55.498Z,70.38
2023-03-05T16:43:56.622Z,70.4
2023-03-05T16:45:58.014Z,70.22
2023-03-05T16:47:59.848Z,70.62
2023-03-05T16:50:01.554Z,69.93
2023-03-05T16:54:04.190Z,71.26
2023-03-05T16:56:06.159Z,71.38
2023-03-05T16:58:07.825Z,71.32
2023-03-05T17:00:09.364Z,71.63
2023-03-05T17:02:11.261Z,71.86
2023-03-05T17:04:13.073Z,71.66
2023-03-05T17:06:14.660Z,71.62
2023-03-05T17:08:16.062Z,71.68
2023-03-05T17:10:17.345Z,72.37
2023-03-05T17:12:19.201Z,72.05
2023-03-05T17:14:20.781Z,72.06
2023-03-05T17:16:22.643Z,72.3
2023-03-05T17:18:23.680Z,72.63
2023-03-05T17:20:25.224Z,73.01
2023-03-05T17:22:26.661Z,73.35
2023-03-05T17:26:30.027Z,73.71
2023-03-05T17:28:31.179Z,73.8
2023-03-05T17:30:32.868Z,73.82
2023-03-05T17:32:34.715Z,73.72
2023-03-05T17:36:37.166Z,74.29
2023-03-05T17:38:38.740Z,74.56
2023-03-05T17:40:40.036Z,74.87
2023-03-05T17:42:41.482Z,75.14
2023-03-05T17:44:42.746Z,75.44
2023-03-05T17:46:44.695Z,75.33
2023-03-05T17:48:46.426Z,75.03
2023-03-05T17:50:47.437Z,74.97
2023-03-05T17:52:48.722Z,74.58
2023-03-05T17:54:50.577Z,74.66
2023-03-05T17:56:52.518Z,74.94
2023-03-05T17:58:53.591Z,75.15
2023-03-05T18:00:55.507Z,75.67
2023-03-05T18:02:56.911Z,76.27
2023-03-05T18:04:58.583Z,76.51
2023-03-05T18:09:01.029Z,76.55
2023-03-05T18:11:02.505Z,76.17
2023-03-05T18:13:04.134Z,75.41
2023-03-05T18:15:05.268Z,75.71
2023-03-05T18:19:08.702Z,76
2023-03-05T18:21:10.348Z,75.81
2023-03-05T18:23:11.975Z,75.49
2023-03-05T18:25:13.318Z,75.62
2023-03-05T18:27:15.007Z,75.37
2023-03-05T18:29:18.684Z,75.5
2023-03-05T18:31:17.650Z,75.38
2023-03-05T18:33:18.645Z,75.38
2023-03-05T18:35:19.978Z,75.56
2023-03-05T18:37:21.023Z,75.64
2023-03-05T18:39:22.224Z,75.6
2023-03-05T18:41:24.002Z,75.66
2023-03-05T18:43:24.833Z,75.82
2023-03-05T18:45:26.853Z,75.48
2023-03-05T18:47:27.897Z,75.54
2023-03-05T18:49:29.890Z,76.07
2023-03-05T18:51:31.678Z,75.91
2023-03-05T18:53:33.341Z,75.47
2023-03-05T18:55:34.557Z,75.61
2023-03-05T18:57:35.969Z,75.2
2023-03-05T18:59:37.706Z,75.24
2023-03-05T19:00:21.624Z,75.03
2023-03-05T19:02:23.484Z,75.42
2023-03-05T19:04:25.292Z,75.37
2023-03-05T19:06:26.490Z,75.4
2023-03-05T19:08:27.850Z,74.9
2023-03-05T19:12:29.925Z,75.32
2023-03-05T19:14:31.293Z,75.14
2023-03-05T19:16:32.901Z,75.32
2023-03-05T19:18:34.440Z,75.23
2023-03-05T19:20:36.230Z,75.18
2023-03-05T19:22:37.962Z,75.51
2023-03-05T19:24:39.841Z,75.54
2023-03-05T19:26:41.199Z,75.29
2023-03-05T19:28:43.062Z,75.58
2023-03-05T19:30:44.480Z,75.69
2023-03-05T19:32:45.817Z,75.45
2023-03-05T19:34:47.293Z,75.65
2023-03-05T19:36:49.109Z,75.68
2023-03-05T19:38:51.190Z,75.8
2023-03-05T19:40:52.174Z,76.08
2023-03-05T19:42:53.538Z,75.71
2023-03-05T19:44:55.389Z,75.8
2023-03-05T19:46:59.954Z,75.95
2023-03-05T19:48:57.824Z,75.93
2023-03-05T19:50:59.053Z,76.17
2023-03-05T19:55:02.422Z,76.19
2023-03-05T19:57:03.531Z,76.28
2023-03-05T19:59:05.084Z,76.45
2023-03-05T20:01:06.303Z,76.64
2023-03-05T20:03:08.038Z,76.52
2023-03-05T20:05:09.744Z,76.88
2023-03-05T20:07:11.558Z,76.9
2023-03-05T20:09:12.788Z,77.06
2023-03-05T20:11:13.948Z,76.89
2023-03-05T20:13:15.118Z,76.77
2023-03-05T20:15:16.170Z,76.88
2023-03-05T20:17:17.441Z,76.31
2023-03-05T20:19:19.400Z,76.55
2023-03-05T20:21:20.893Z,76.69
2023-03-05T20:23:22.100Z,76.4
2023-03-05T20:27:24.920Z,76.93
2023-03-05T20:29:26.014Z,76.76
2023-03-05T20:31:27.647Z,76.76
2023-03-05T20:33:29.032Z,76.84
2023-03-05T20:37:32.219Z,76.96
2023-03-05T20:39:33.402Z,76.84
2023-03-05T20:41:35.456Z,76.83
2023-03-05T20:43:36.659Z,76.93
2023-03-05T20:45:37.884Z,77.01
2023-03-05T20:47:39.165Z,76.62
2023-03-05T20:49:40.373Z,76.43
2023-03-05T20:51:42.050Z,76.14
2023-03-05T20:53:43.851Z,76.02
2023-03-05T20:55:45.712Z,76.08
2023-03-05T20:57:47.230Z,76.36
2023-03-05T20:59:48.452Z,76.66
2023-03-05T21:01:49.533Z,76.85
2023-03-05T21:03:51.097Z,76.91
2023-03-05T21:05:52.833Z,76.77
2023-03-05T21:09:55.490Z,77.06
2023-03-05T21:11:56.696Z,76.52
2023-03-05T21:13:58.351Z,77.04
2023-03-05T21:15:59.782Z,77.01
2023-03-05T21:20:02.315Z,77.12
2023-03-05T21:22:03.496Z,77.22
2023-03-05T21:26:05.892Z,77.33
2023-03-05T21:28:06.875Z,77.53
2023-03-05T21:30:08.683Z,77.78
2023-03-05T21:32:10.336Z,77.73
2023-03-05T21:36:12.664Z,77.6
2023-03-05T21:38:14.424Z,77.55
2023-03-05T21:40:15.415Z,77.72
2023-03-05T21:42:16.875Z,77.9
2023-03-05T21:44:18.406Z,77.81
2023-03-05T21:46:20.008Z,77.73
2023-03-05T21:48:21.924Z,77.69
2023-03-05T21:50:23.400Z,77.77
2023-03-05T21:52:24.845Z,77.75
2023-03-05T21:54:28.097Z,77.71
2023-03-05T21:56:27.874Z,78.03
2023-03-05T21:58:29.088Z,78.03
2023-03-05T22:00:30.168Z,78.2
2023-03-05T22:02:32.086Z,78.4
2023-03-05T22:04:33.090Z,78.57
2023-03-05T22:06:35.008Z,78.94
2023-03-05T22:08:36.224Z,79.07
2023-03-05T22:10:37.684Z,79.04
2023-03-05T22:12:39.319Z,79.07
2023-03-05T22:14:40.798Z,78.94
2023-03-05T22:18:44.269Z,79.1
2023-03-05T22:20:46.044Z,79.04
2023-03-05T22:22:47.374Z,79.32
2023-03-05T22:24:48.628Z,79.42
2023-03-05T22:26:50.541Z,79.52
2023-03-05T22:28:51.628Z,79.69
2023-03-05T22:30:53.693Z,79.97
2023-03-05T22:32:54.909Z,79.98
2023-03-05T22:36:57.289Z,80.14
2023-03-05T22:38:58.342Z,80.07
2023-03-05T22:40:59.561Z,79.95
2023-03-05T22:43:01.474Z,79.9
2023-03-05T22:45:03.061Z,80.02
2023-03-05T22:47:04.914Z,80.29
2023-03-05T22:49:06.214Z,80.45
2023-03-05T22:51:08.191Z,80.19
2023-03-05T22:53:09.534Z,80.18
2023-03-05T22:57:12.409Z,80.51
2023-03-05T22:59:14.337Z,80.85
2023-03-05T23:01:15.488Z,81.01
2023-03-05T23:03:16.620Z,81.3
2023-03-05T23:07:19.756Z,81.69
2023-03-05T23:09:21.485Z,81.88
2023-03-05T23:11:23.347Z,82.04
2023-03-05T23:13:24.818Z,82.29
2023-03-05T23:15:26.122Z,82.55
2023-03-05T23:17:27.422Z,82.76
2023-03-05T23:19:29.026Z,82.88
2023-03-05T23:21:30.348Z,83.24
2023-03-05T23:23:31.984Z,83.32
2023-03-05T23:25:33.830Z,83.31
2023-03-05T23:27:35.448Z,83.18
2023-03-05T23:29:36.615Z,83.24
2023-03-05T23:31:37.928Z,83.18
2023-03-05T23:33:39.354Z,83.29
2023-03-05T23:35:41.254Z,83.54
2023-03-05T23:37:43.112Z,83.69
2023-03-05T23:39:44.386Z,83.85
2023-03-05T23:41:45.908Z,83.89
2023-03-05T23:43:47.314Z,84.05
2023-03-05T23:45:49.121Z,84.27
2023-03-05T23:49:51.761Z,84.7
2023-03-05T23:51:53.229Z,84.78
2023-03-05T23:53:55.068Z,84.59
2023-03-05T23:55:56.995Z,84.42
2023-03-05T23:57:58.060Z,84.48
2023-03-05T23:59:59.282Z,84.67
